createdAt,value
2022-09-06T00:01:12.492Z,20.28
2022-09-06T00:03:40.287Z,20.26
2022-09-06T00:06:10.242Z,20.20
2022-09-06T00:08:39.457Z,20.12
2022-09-06T00:11:07.523Z,20.13
2022-09-06T00:13:35.491Z,20.18
2022-09-06T00:16:08.290Z,20.21
2022-09-06T00:18:36.097Z,20.06
2022-09-06T00:21:03.858Z,20.05
2022-09-06T00:23:31.506Z,19.96
2022-09-06T00:26:06.729Z,19.98
2022-09-06T00:28:34.393Z,19.82
2022-09-06T00:31:09.733Z,19.78
2022-09-06T00:33:37.726Z,19.73
2022-09-06T00:36:05.553Z,19.72
2022-09-06T00:38:33.370Z,19.69
2022-09-06T00:41:00.990Z,19.59
2022-09-06T00:43:29.978Z,19.57
2022-09-06T00:45:58.187Z,19.57
2022-09-06T00:48:25.984Z,19.55
2022-09-06T00:50:56.277Z,19.61
2022-09-06T00:53:24.524Z,19.65
2022-09-06T00:55:52.142Z,19.57
2022-09-06T00:58:19.909Z,19.47
2022-09-06T01:00:48.948Z,19.49
2022-09-06T01:03:16.711Z,19.39
2022-09-06T01:05:54.279Z,19.37
2022-09-06T01:08:29.294Z,19.35
2022-09-06T01:11:13.138Z,19.50
2022-09-06T01:13:50.321Z,19.44
2022-09-06T01:16:26.795Z,19.36
2022-09-06T01:19:04.158Z,19.36
2022-09-06T01:21:48.206Z,19.32
2022-09-06T01:24:38.942Z,19.68
2022-09-06T01:27:36.046Z,19.81
2022-09-06T01:30:07.597Z,19.87
2022-09-06T01:32:42.352Z,19.85
2022-09-06T01:35:18.582Z,19.96
2022-09-06T01:37:46.381Z,19.86
2022-09-06T01:40:13.992Z,19.66
2022-09-06T01:42:42.689Z,19.57
2022-09-06T01:45:14.093Z,19.36
2022-09-06T01:47:49.541Z,19.12
2022-09-06T01:51:04.993Z,19.00
2022-09-06T01:53:46.091Z,18.84
2022-09-06T01:56:23.326Z,18.78
2022-09-06T01:59:04.282Z,18.71
2022-09-06T02:01:37.164Z,18.65
2022-09-06T02:04:10.068Z,18.60
2022-09-06T02:06:41.011Z,18.54
2022-09-06T02:09:11.120Z,18.45
2022-09-06T02:11:41.554Z,18.38
2022-09-06T02:14:11.403Z,18.19
2022-09-06T02:16:42.636Z,18.20
2022-09-06T02:19:25.993Z,18.14
2022-09-06T02:25:55.029Z,18.15
2022-09-06T02:28:27.309Z,18.20
2022-09-06T02:31:33.077Z,18.13
2022-09-06T02:34:10.998Z,18.25
2022-09-06T02:38:20.467Z,18.28
2022-09-06T02:39:50.318Z,18.18
2022-09-06T02:42:27.769Z,18.11
2022-09-06T02:48:11.633Z,18.20
2022-09-06T02:50:57.060Z,18.24
2022-09-06T02:53:24.639Z,18.06
2022-09-06T02:55:52.274Z,18.20
2022-09-06T02:58:19.880Z,18.16
2022-09-06T03:00:47.989Z,18.11
2022-09-06T03:03:16.107Z,18.14
2022-09-06T03:05:48.097Z,18.26
2022-09-06T03:08:15.747Z,18.15
2022-09-06T03:10:43.448Z,18.20
2022-09-06T03:13:11.594Z,18.14
2022-09-06T03:15:39.256Z,18.24
2022-09-06T03:18:07.019Z,18.24
2022-09-06T03:20:37.150Z,18.27
2022-09-06T03:23:06.485Z,18.14
2022-09-06T03:25:34.139Z,18.10
2022-09-06T03:28:01.860Z,18.06
2022-09-06T03:30:29.543Z,17.95
2022-09-06T03:33:00.797Z,17.89
2022-09-06T03:35:30.133Z,17.87
2022-09-06T03:37:57.869Z,17.85
2022-09-06T03:40:26.899Z,17.88
2022-09-06T03:42:54.530Z,18.00
2022-09-06T03:45:22.312Z,17.86
2022-09-06T03:47:49.936Z,17.83
2022-09-06T03:50:17.649Z,17.66
2022-09-06T03:52:45.252Z,17.63
2022-09-06T03:55:12.925Z,17.64
2022-09-06T03:57:41.905Z,17.47
2022-09-06T04:00:10.858Z,17.57
2022-09-06T04:02:38.532Z,17.43
2022-09-06T04:05:06.874Z,17.24
2022-09-06T04:07:34.533Z,17.29
2022-09-06T04:10:02.135Z,17.32
2022-09-06T04:12:29.952Z,17.24
2022-09-06T04:14:58.986Z,17.23
2022-09-06T04:17:26.680Z,17.20
2022-09-06T04:19:54.339Z,17.29
2022-09-06T04:22:21.979Z,17.24
2022-09-06T04:24:49.611Z,17.26
2022-09-06T04:27:17.288Z,17.22
2022-09-06T04:29:45.153Z,17.13
2022-09-06T04:32:14.285Z,17.08
2022-09-06T04:34:42.151Z,17.06
2022-09-06T04:37:10.322Z,17.10
2022-09-06T04:39:40.101Z,17.17
2022-09-06T04:42:08.628Z,17.09
2022-09-06T04:44:36.625Z,16.93
2022-09-06T04:47:09.470Z,17.03
2022-09-06T04:49:41.592Z,16.96
2022-09-06T04:52:10.122Z,16.86
2022-09-06T04:54:38.401Z,16.82
2022-09-06T04:57:06.937Z,16.86
2022-09-06T04:59:35.823Z,16.90
2022-09-06T05:02:04.299Z,16.93
2022-09-06T05:04:32.644Z,16.92
2022-09-06T05:07:07.103Z,16.91
2022-09-06T05:09:35.201Z,16.89
2022-09-06T05:12:03.199Z,16.98
2022-09-06T05:14:30.998Z,16.88
2022-09-06T05:16:58.829Z,16.83
2022-09-06T05:19:26.619Z,16.76
2022-09-06T05:21:54.227Z,16.73
2022-09-06T05:24:23.209Z,16.66
2022-09-06T05:26:50.836Z,16.64
2022-09-06T05:29:18.482Z,16.76
2022-09-06T05:31:46.174Z,16.76
2022-09-06T05:34:14.996Z,16.89
2022-09-06T05:36:42.679Z,16.84
2022-09-06T05:39:10.355Z,16.83
2022-09-06T05:41:39.339Z,16.85
2022-09-06T05:44:07.042Z,16.79
2022-09-06T05:46:34.641Z,16.82
2022-09-06T05:49:07.776Z,16.86
2022-09-06T05:51:35.398Z,16.84
2022-09-06T05:54:03.052Z,16.88
2022-09-06T05:56:30.736Z,16.84
2022-09-06T05:58:59.733Z,16.86
2022-09-06T06:01:28.642Z,16.92
2022-09-06T06:03:58.789Z,16.88
2022-09-06T06:06:27.623Z,16.85
2022-09-06T06:08:55.331Z,16.89
2022-09-06T06:11:22.996Z,16.99
2022-09-06T06:13:50.826Z,17.03
2022-09-06T06:16:22.033Z,17.04
2022-09-06T06:18:52.341Z,17.16
2022-09-06T06:21:22.530Z,17.23
2022-09-06T06:23:51.851Z,17.29
2022-09-06T06:26:19.797Z,17.44
2022-09-06T06:28:47.540Z,17.57
2022-09-06T06:31:15.228Z,17.61
2022-09-06T06:33:44.586Z,17.63
2022-09-06T06:36:21.850Z,17.81
2022-09-06T06:38:51.425Z,17.77
2022-09-06T06:41:20.263Z,17.87
2022-09-06T06:43:48.065Z,17.96
2022-09-06T06:46:18.021Z,18.02
2022-09-06T06:48:50.460Z,18.18
2022-09-06T06:51:23.406Z,18.28
2022-09-06T06:53:51.622Z,18.42
2022-09-06T06:56:21.586Z,18.47
2022-09-06T06:58:51.098Z,18.48
2022-09-06T07:01:20.133Z,18.47
2022-09-06T07:03:49.755Z,18.58
2022-09-06T07:06:18.182Z,18.67
2022-09-06T07:08:46.333Z,18.75
2022-09-06T07:11:15.300Z,18.76
2022-09-06T07:13:43.023Z,18.76
2022-09-06T07:16:13.443Z,18.86
2022-09-06T07:18:42.190Z,19.02
2022-09-06T07:24:08.697Z,19.10
2022-09-06T07:26:38.500Z,19.12
2022-09-06T07:29:07.438Z,19.10
2022-09-06T07:34:25.247Z,19.20
2022-09-06T07:36:54.609Z,19.40
2022-09-06T07:39:22.362Z,19.51
2022-09-06T07:41:49.997Z,19.63
2022-09-06T07:44:17.714Z,19.77
2022-09-06T07:46:45.420Z,19.70
2022-09-06T07:49:13.116Z,19.67
2022-09-06T07:51:40.784Z,19.88
2022-09-06T07:54:29.925Z,19.99
2022-09-06T07:56:58.252Z,19.91
2022-09-06T07:59:27.443Z,20.02
2022-09-06T08:01:55.125Z,20.17
2022-09-06T08:04:22.776Z,20.28
2022-09-06T08:09:41.053Z,20.66
2022-09-06T08:12:09.524Z,20.80
2022-09-06T08:14:37.381Z,20.76
2022-09-06T08:17:05.079Z,20.91
2022-09-06T08:19:32.687Z,20.96
2022-09-06T08:22:00.328Z,21.12
2022-09-06T08:24:27.935Z,21.15
2022-09-06T08:26:56.972Z,21.19
2022-09-06T08:29:25.908Z,21.36
2022-09-06T08:31:53.631Z,21.36
2022-09-06T08:34:21.311Z,21.39
2022-09-06T08:36:48.933Z,21.41
2022-09-06T08:39:16.746Z,21.65
2022-09-06T08:41:49.401Z,21.85
2022-09-06T08:47:10.312Z,21.76
2022-09-06T08:49:39.895Z,21.79
2022-09-06T08:52:23.680Z,22.04
2022-09-06T08:54:56.710Z,22.20
2022-09-06T08:57:39.986Z,22.15
2022-09-06T09:00:12.361Z,22.41
2022-09-06T09:02:44.946Z,22.51
2022-09-06T09:05:22.155Z,22.66
2022-09-06T09:07:55.426Z,22.56
2022-09-06T09:10:25.710Z,22.62
2022-09-06T09:12:53.323Z,22.82
2022-09-06T09:15:22.498Z,22.82
2022-09-06T09:17:51.840Z,22.79
2022-09-06T09:20:20.194Z,22.89
2022-09-06T09:22:48.085Z,23.05
2022-09-06T09:25:20.215Z,23.15
2022-09-06T09:27:49.900Z,23.23
2022-09-06T09:33:22.321Z,23.39
2022-09-06T09:35:50.272Z,23.38
2022-09-06T09:38:21.915Z,23.34
2022-09-06T09:40:54.010Z,23.45
2022-09-06T09:43:23.411Z,23.64
2022-09-06T09:46:13.711Z,23.88
2022-09-06T09:48:46.394Z,23.98
2022-09-06T09:51:26.110Z,24.02
2022-09-06T09:53:56.358Z,24.02
2022-09-06T09:56:29.337Z,23.99
2022-09-06T09:58:58.026Z,24.21
2022-09-06T10:01:28.154Z,24.22
2022-09-06T10:09:37.465Z,24.52
2022-09-06T10:12:05.980Z,24.38
2022-09-06T10:14:42.743Z,24.34
2022-09-06T10:17:20.018Z,24.52
2022-09-06T10:19:49.160Z,24.58
2022-09-06T10:22:27.896Z,24.76
2022-09-06T10:25:10.092Z,25.00
2022-09-06T10:27:55.475Z,24.91
2022-09-06T10:30:31.233Z,24.93
2022-09-06T10:33:01.824Z,25.10
2022-09-06T10:35:32.132Z,25.08
2022-09-06T10:38:25.409Z,25.04
2022-09-06T10:41:00.108Z,25.16
2022-09-06T10:43:36.624Z,25.48
2022-09-06T10:46:09.126Z,25.43
2022-09-06T10:48:40.267Z,25.39
2022-09-06T10:51:18.668Z,25.52
2022-09-06T10:53:49.543Z,25.69
2022-09-06T10:56:30.901Z,26.12
2022-09-06T11:01:57.927Z,25.93
2022-09-06T11:04:30.733Z,26.10
2022-09-06T11:07:02.239Z,26.34
2022-09-06T11:09:35.159Z,26.51
2022-09-06T11:12:07.422Z,26.43
2022-09-06T11:14:35.377Z,26.77
2022-09-06T11:17:06.055Z,26.71
2022-09-06T11:19:37.716Z,26.59
2022-09-06T11:22:26.094Z,26.66
2022-09-06T11:25:18.074Z,26.70
2022-09-06T11:27:47.836Z,27.06
2022-09-06T11:30:16.926Z,27.14
2022-09-06T11:32:48.844Z,26.89
2022-09-06T11:35:24.123Z,26.98
2022-09-06T11:38:01.106Z,27.13
2022-09-06T11:40:30.442Z,27.19
2022-09-06T11:43:13.778Z,27.30
2022-09-06T11:45:44.675Z,27.46
2022-09-06T11:48:47.917Z,27.73
2022-09-06T11:51:33.424Z,27.52
2022-09-06T11:54:22.803Z,27.79
2022-09-06T11:56:56.197Z,28.10
2022-09-06T11:59:33.195Z,28.10
2022-09-06T12:02:02.501Z,28.34
2022-09-06T12:05:07.050Z,28.36
2022-09-06T12:07:36.400Z,28.31
2022-09-06T12:10:43.745Z,28.24
2022-09-06T12:13:42.314Z,28.65
2022-09-06T12:16:10.860Z,28.81
2022-09-06T12:18:59.144Z,28.87
2022-09-06T12:21:39.498Z,28.97
2022-09-06T12:24:08.207Z,28.75
2022-09-06T12:26:55.889Z,28.90
2022-09-06T12:29:26.274Z,29.11
2022-09-06T12:31:55.521Z,29.12
2022-09-06T12:34:24.663Z,28.98
2022-09-06T12:36:56.319Z,29.16
2022-09-06T12:39:24.358Z,29.27
2022-09-06T12:41:57.004Z,29.30
2022-09-06T12:44:30.238Z,29.45
2022-09-06T12:47:03.192Z,29.64
2022-09-06T12:49:30.861Z,29.62
2022-09-06T12:52:07.933Z,29.48
2022-09-06T12:54:44.306Z,29.50
2022-09-06T12:57:20.500Z,29.36
2022-09-06T12:59:49.945Z,29.28
2022-09-06T13:02:21.493Z,29.48
2022-09-06T13:04:53.106Z,29.67
2022-09-06T13:07:21.947Z,29.72
2022-09-06T13:09:52.039Z,29.97
2022-09-06T13:12:26.271Z,30.01
2022-09-06T13:14:54.923Z,30.01
2022-09-06T13:17:26.701Z,30.06
2022-09-06T13:19:54.432Z,30.24
2022-09-06T13:22:45.516Z,30.10
2022-09-06T13:25:20.857Z,30.22
2022-09-06T13:27:51.560Z,30.20
2022-09-06T13:30:37.712Z,30.01
2022-09-06T13:33:07.239Z,30.33
2022-09-06T13:35:37.687Z,30.15
2022-09-06T13:38:23.197Z,30.05
2022-09-06T13:43:47.765Z,30.35
2022-09-06T13:46:18.393Z,30.29
2022-09-06T13:48:46.347Z,30.15
2022-09-06T13:51:14.043Z,30.47
2022-09-06T13:53:41.960Z,30.38
2022-09-06T13:56:09.690Z,30.55
2022-09-06T13:58:37.738Z,30.42
2022-09-06T14:01:08.666Z,30.30
2022-09-06T14:03:37.049Z,30.36
2022-09-06T14:06:05.269Z,30.11
2022-09-06T14:08:49.591Z,30.07
2022-09-06T14:11:21.403Z,30.31
2022-09-06T14:13:49.667Z,30.20
2022-09-06T14:16:18.811Z,30.40
2022-09-06T14:18:46.638Z,30.10
2022-09-06T14:21:14.483Z,30.29
2022-09-06T14:23:42.478Z,30.12
2022-09-06T14:26:11.985Z,30.13
2022-09-06T14:28:39.628Z,30.24
2022-09-06T14:31:11.925Z,30.50
2022-09-06T14:33:41.068Z,30.45
2022-09-06T14:36:09.959Z,30.29
2022-09-06T14:38:39.033Z,30.30
2022-09-06T14:41:08.303Z,30.17
2022-09-06T14:43:36.741Z,30.24
2022-09-06T14:46:06.143Z,30.13
2022-09-06T14:48:34.216Z,30.11
2022-09-06T14:51:09.692Z,30.16
2022-09-06T14:53:41.007Z,29.95
2022-09-06T14:56:09.361Z,29.74
2022-09-06T14:58:38.622Z,29.66
2022-09-06T15:01:11.743Z,29.65
2022-09-06T15:03:40.606Z,29.58
2022-09-06T15:06:10.697Z,29.47
2022-09-06T15:08:38.831Z,29.40
2022-09-06T15:11:08.216Z,29.34
2022-09-06T15:13:37.285Z,29.27
2022-09-06T15:16:05.687Z,29.19
2022-09-06T15:18:33.679Z,29.16
2022-09-06T15:21:10.545Z,29.04
2022-09-06T15:23:39.197Z,28.98
2022-09-06T15:26:09.054Z,28.88
2022-09-06T15:28:37.007Z,28.87
2022-09-06T15:31:04.997Z,28.70
2022-09-06T15:33:33.821Z,28.69
2022-09-06T15:36:05.981Z,28.64
2022-09-06T15:38:36.497Z,28.65
2022-09-06T15:41:08.266Z,28.12
2022-09-06T15:43:36.927Z,28.05
2022-09-06T15:46:04.784Z,28.05
2022-09-06T15:48:41.483Z,27.74
2022-09-06T15:51:09.170Z,27.43
2022-09-06T15:53:38.423Z,27.08
2022-09-06T15:56:07.152Z,26.89
2022-09-06T15:58:35.029Z,26.70
2022-09-06T16:01:04.202Z,26.38
2022-09-06T16:03:32.207Z,26.16
2022-09-06T16:08:58.348Z,26.01
2022-09-06T16:11:26.301Z,26.02
2022-09-06T16:13:54.133Z,25.78
2022-09-06T16:16:22.639Z,25.49
2022-09-06T16:18:52.067Z,25.24
2022-09-06T16:21:21.583Z,25.11
2022-09-06T16:23:50.428Z,24.71
2022-09-06T16:26:21.772Z,24.47
2022-09-06T16:28:50.400Z,24.42
2022-09-06T16:31:18.902Z,24.23
2022-09-06T16:33:48.709Z,24.16
2022-09-06T16:36:16.503Z,24.07
2022-09-06T16:38:44.257Z,23.44
2022-09-06T16:41:14.414Z,22.33
2022-09-06T16:43:43.588Z,21.83
2022-09-06T16:46:11.973Z,20.56
2022-09-06T16:48:40.529Z,20.44
2022-09-06T16:51:13.094Z,20.68
2022-09-06T16:53:42.343Z,20.73
2022-09-06T16:56:10.697Z,20.56
2022-09-06T16:58:39.419Z,20.38
2022-09-06T17:01:09.490Z,19.94
2022-09-06T17:03:37.771Z,19.84
2022-09-06T17:06:05.886Z,19.84
2022-09-06T17:08:34.248Z,19.92
2022-09-06T17:11:02.653Z,19.92
2022-09-06T17:13:30.843Z,19.82
2022-09-06T17:16:20.000Z,19.92
2022-09-06T17:18:53.621Z,19.97
2022-09-06T17:21:22.145Z,20.00
2022-09-06T17:23:50.427Z,19.62
2022-09-06T17:26:18.538Z,19.65
2022-09-06T17:28:46.343Z,19.75
2022-09-06T17:31:14.565Z,19.84
2022-09-06T17:33:42.425Z,19.84
2022-09-06T17:36:13.139Z,19.98
2022-09-06T17:38:41.623Z,19.97
2022-09-06T17:41:09.852Z,20.03
2022-09-06T17:43:38.420Z,20.02
2022-09-06T17:46:06.487Z,19.72
2022-09-06T17:48:35.011Z,19.81
2022-09-06T17:51:06.890Z,19.89
2022-09-06T17:53:36.997Z,19.82
2022-09-06T17:56:05.422Z,19.92
2022-09-06T17:58:33.318Z,20.04
2022-09-06T18:01:03.397Z,19.95
2022-09-06T18:03:31.988Z,20.01
2022-09-06T18:06:04.349Z,19.81
2022-09-06T18:08:32.059Z,19.85
2022-09-06T18:11:07.969Z,19.71
2022-09-06T18:13:37.583Z,19.78
2022-09-06T18:16:07.668Z,19.80
2022-09-06T18:18:36.655Z,19.65
2022-09-06T18:21:07.490Z,19.81
2022-09-06T18:26:06.017Z,19.77
2022-09-06T18:28:34.785Z,19.67
2022-09-06T18:31:06.108Z,19.51
2022-09-06T18:36:09.259Z,19.43
2022-09-06T18:38:37.508Z,19.16
2022-09-06T18:41:09.000Z,19.41
2022-09-06T18:43:39.118Z,19.31
2022-09-06T18:46:09.775Z,19.22
2022-09-06T18:48:38.255Z,19.33
2022-09-06T18:51:06.790Z,19.43
2022-09-06T18:53:34.699Z,19.30
2022-09-06T18:56:02.984Z,19.11
2022-09-06T18:58:32.263Z,19.20
2022-09-06T19:01:03.304Z,19.31
2022-09-06T19:03:32.088Z,19.22
2022-09-06T19:06:03.214Z,19.27
2022-09-06T19:08:30.949Z,19.23
2022-09-06T19:11:03.258Z,19.24
2022-09-06T19:13:33.761Z,19.25
2022-09-06T19:16:02.024Z,19.28
2022-09-06T19:18:30.232Z,19.27
2022-09-06T19:21:00.936Z,19.30
2022-09-06T19:23:29.499Z,19.32
2022-09-06T19:25:58.449Z,19.42
2022-09-06T19:28:26.765Z,19.18
2022-09-06T19:30:56.443Z,18.96
2022-09-06T19:33:24.582Z,18.88
2022-09-06T19:36:10.474Z,18.79
2022-09-06T19:39:01.549Z,18.69
2022-09-06T19:41:27.617Z,18.71
2022-09-06T19:43:57.007Z,18.56
2022-09-06T19:46:26.775Z,18.52
2022-09-06T19:48:55.901Z,18.52
2022-09-06T19:51:24.153Z,18.58
2022-09-06T19:53:53.978Z,18.62
2022-09-06T19:56:23.298Z,18.60
2022-09-06T19:58:55.178Z,18.74
2022-09-06T20:01:23.388Z,18.85
2022-09-06T20:03:52.930Z,18.78
2022-09-06T20:06:22.360Z,18.70
2022-09-06T20:08:51.625Z,18.56
2022-09-06T20:11:20.741Z,18.67
2022-09-06T20:13:48.498Z,18.65
2022-09-06T20:16:17.968Z,18.55
2022-09-06T20:18:48.307Z,18.53
2022-09-06T20:21:18.489Z,18.68
2022-09-06T20:23:49.935Z,18.54
2022-09-06T20:26:18.090Z,18.53
2022-09-06T20:28:46.196Z,18.41
2022-09-06T20:31:16.032Z,18.39
2022-09-06T20:33:48.721Z,18.35
2022-09-06T20:36:19.315Z,18.39
2022-09-06T20:38:47.944Z,18.36
2022-09-06T20:41:17.422Z,18.16
2022-09-06T20:43:46.487Z,18.24
2022-09-06T20:46:16.194Z,18.22
2022-09-06T20:48:45.396Z,18.17
2022-09-06T20:51:15.446Z,18.35
2022-09-06T20:53:44.518Z,18.41
2022-09-06T20:56:13.968Z,18.30
2022-09-06T20:58:41.962Z,18.36
2022-09-06T21:01:11.519Z,18.39
2022-09-06T21:03:40.784Z,18.32
2022-09-06T21:06:09.926Z,18.24
2022-09-06T21:08:42.349Z,18.30
2022-09-06T21:11:12.009Z,18.34
2022-09-06T21:13:40.692Z,18.26
2022-09-06T21:16:08.757Z,18.42
2022-09-06T21:18:36.998Z,18.31
2022-09-06T21:21:05.901Z,18.25
2022-09-06T21:23:36.693Z,18.23
2022-09-06T21:26:06.273Z,18.25
2022-09-06T21:28:39.902Z,18.22
2022-09-06T21:31:09.009Z,18.24
2022-09-06T21:33:37.711Z,18.19
2022-09-06T21:36:07.585Z,18.18
2022-09-06T21:38:35.785Z,18.16
2022-09-06T21:41:03.957Z,18.31
2022-09-06T21:43:32.312Z,18.45
2022-09-06T21:46:03.445Z,18.40
2022-09-06T21:48:31.260Z,18.32
2022-09-06T21:50:59.139Z,18.25
2022-09-06T21:53:27.078Z,18.29
2022-09-06T21:56:00.395Z,18.24
2022-09-06T21:58:28.440Z,18.21
2022-09-06T22:00:58.531Z,18.17
2022-09-06T22:03:28.638Z,18.17
2022-09-06T22:05:56.646Z,18.10
2022-09-06T22:08:25.089Z,18.09
2022-09-06T22:10:53.115Z,18.23
2022-09-06T22:13:21.497Z,18.07
2022-09-06T22:15:49.302Z,18.01
2022-09-06T22:18:17.035Z,17.78
2022-09-06T22:20:46.144Z,17.76
2022-09-06T22:23:13.816Z,17.77
2022-09-06T22:25:41.981Z,17.65
2022-09-06T22:28:09.931Z,17.77
2022-09-06T22:30:37.606Z,17.73
2022-09-06T22:33:05.307Z,17.59
2022-09-06T22:35:33.026Z,17.63
2022-09-06T22:38:02.620Z,17.58
2022-09-06T22:40:30.309Z,17.56
2022-09-06T22:42:58.052Z,17.65
2022-09-06T22:45:25.823Z,17.63
2022-09-06T22:47:53.734Z,17.64
2022-09-06T22:50:21.438Z,17.77
2022-09-06T22:52:49.098Z,17.75
2022-09-06T22:55:18.387Z,17.75
2022-09-06T22:57:46.059Z,17.73
2022-09-06T23:00:15.022Z,17.66
2022-09-06T23:02:42.882Z,17.86
2022-09-06T23:05:10.629Z,17.83
2022-09-06T23:07:38.309Z,17.74
2022-09-06T23:10:07.255Z,17.66
2022-09-06T23:12:36.424Z,17.66
2022-09-06T23:15:04.343Z,17.72
2022-09-06T23:17:31.985Z,17.78
2022-09-06T23:19:59.645Z,17.75
2022-09-06T23:22:27.316Z,17.77
2022-09-06T23:24:55.050Z,17.82
2022-09-06T23:27:22.724Z,17.91
2022-09-06T23:29:51.995Z,17.84
2022-09-06T23:32:19.939Z,17.87
2022-09-06T23:34:47.674Z,17.83
2022-09-06T23:37:15.356Z,17.87
2022-09-06T23:39:43.072Z,17.80
2022-09-06T23:42:10.727Z,17.83
2022-09-06T23:44:38.393Z,17.81
2022-09-06T23:47:07.529Z,17.86
2022-09-06T23:49:35.223Z,17.79
2022-09-06T23:52:03.487Z,17.83
2022-09-06T23:54:31.159Z,17.79
2022-09-06T23:56:58.843Z,17.80
2022-09-06T23:59:26.529Z,17.80
